Fort Morgan, CO

11:34 AM MDT on April 26, 2015 (GMT -0600)
Fort Morgan | | Change Station
CLOSE
Current Station
Personal Weather Station
Location: Fort Morgan, CO
Elevation: 4334 ft
Nearby Weather Stations

Elev 4334 ft 40.26 °N, 103.80 °W | Updated 58 seconds ago

Overcast
Overcast
44.1 °F
Feels Like 44 °F
N
0.0
Wind Variable Wind from NE
Gusts 9.0 mph

Today
High -- | Low -- °F
--% Chance of Precip.
Yesterday
High -- | Low -- °F
Precip. -- in
6:01 AM 7:45 PM
First Quarter, 57% visible
Pressure 29.91 in
Visibility 5.0 miles
Clouds Mostly Cloudy 500 ft
Mostly Cloudy 800 ft
Overcast 1400 ft
Windchill 44 °F
Dew Point 42 °F
Humidity 93%
Rainfall 0.09 in
Snow Depth Not available.
UV 3 out of 12
Pollen 3.10 out of 12
Air Quality Not available.
Flu Activity Sporadic
METAR KFMM 261715Z AUTO 08013G18KT 5SM -RA BKN005 BKN008 OVC014 06/05 A2991 RMK AO2 T00600051

More Conditions Fewer Conditions

Pressure 29.91 in
Visibility 5.0 miles
Clouds Mostly Cloudy 500 ft
Mostly Cloudy 800 ft
Overcast 1400 ft
Windchill 44 °F
Dew Point 42 °F
Humidity 93%
Rainfall 0.09 in
Snow Depth Not available.
UV 3 out of 12
Pollen 3.10 out of 12
Air Quality Not available.
Flu Activity Sporadic
METAR KFMM 261715Z AUTO 08013G18KT 5SM -RA BKN005 BKN008 OVC014 06/05 A2991 RMK AO2 T00600051

More Conditions Fewer Conditions

The full scope of the disaster following a powerful 7.8-magnitude earthquake in Nepal may not come into view for days, but global charities are already sending emergency aid. Click to see how you can help.
Nowcast | as of 10:07 am MDT on April 26, 2015

Showers...mainly along and north of I-76 on the northeast Colorado plains...will gradually decrease in coverage through the noon hour. Additional rainfall amounts will be a tenth of an inch or less. Some ponding of water may still exist in areas that saw heavier rainfall last night. Do not drive into areas where water covers the Road.

×

10-Day Weather Forecast

Almanac

Astronomy

Apr. 26, 2015 Rise Set
Actual Time
Civil Twilight
Nautical Twilight
Astronomical Twilight
Moon
Length of Visible Light
Length of Day
Tomorrow will be .
, % of the Moon is Illuminated

Today's Extremes

State Highs State Lows

Community

WunderPhotos

Upload Photos

1,817,063 photos uploaded!

WunderBlogs® & News

Nearby

Air Quality

  Air Quality AQ Index Pollutant
Not available.

Snow Depth

Station Depth Elevation

Earthquake Activity

City Distance Mag. Time & Date
Minimum magnitude displayed is 2.5.

Coastal Water Temperatures

Place Temperature

Stations

Nearby Weather Stations

Station Location Temp. Windchill Dew Point Humidity Wind Precip. Elev Updated Type